sensor_id;sensor_type;location;lat;lon;timestamp;temperature;humidity
70708;SHT30;58277;47.316;18.908;2022-11-04T00:00:30;9.91;90.78
70708;SHT30;58277;47.316;18.908;2022-11-04T00:02:53;9.91;90.88
70708;SHT30;58277;47.316;18.908;2022-11-04T00:05:15;9.93;90.90
70708;SHT30;58277;47.316;18.908;2022-11-04T00:07:38;9.87;91.02
70708;SHT30;58277;47.316;18.908;2022-11-04T00:10:19;9.83;91.12
70708;SHT30;58277;47.316;18.908;2022-11-04T00:13:01;9.82;91.43
70708;SHT30;58277;47.316;18.908;2022-11-04T00:15:25;9.80;91.37
70708;SHT30;58277;47.316;18.908;2022-11-04T00:18:06;9.79;91.51
70708;SHT30;58277;47.316;18.908;2022-11-04T00:20:28;9.80;91.47
70708;SHT30;58277;47.316;18.908;2022-11-04T00:23:10;9.80;91.51
70708;SHT30;58277;47.316;18.908;2022-11-04T00:26:11;9.83;91.55
70708;SHT30;58277;47.316;18.908;2022-11-04T00:28:52;9.86;91.50
70708;SHT30;58277;47.316;18.908;2022-11-04T00:31:15;9.87;91.40
70708;SHT30;58277;47.316;18.908;2022-11-04T00:33:57;9.90;91.39
70708;SHT30;58277;47.316;18.908;2022-11-04T00:36:22;9.91;91.37
70708;SHT30;58277;47.316;18.908;2022-11-04T00:38:45;10.01;91.09
70708;SHT30;58277;47.316;18.908;2022-11-04T00:41:08;9.93;91.31
70708;SHT30;58277;47.316;18.908;2022-11-04T00:43:47;9.90;91.52
70708;SHT30;58277;47.316;18.908;2022-11-04T00:46:09;9.87;91.55
70708;SHT30;58277;47.316;18.908;2022-11-04T00:48:32;9.77;91.81
70708;SHT30;58277;47.316;18.908;2022-11-04T00:50:54;9.69;92.07
70708;SHT30;58277;47.316;18.908;2022-11-04T00:53:17;9.59;92.28
70708;SHT30;58277;47.316;18.908;2022-11-04T00:55:39;9.57;92.40
70708;SHT30;58277;47.316;18.908;2022-11-04T00:58:06;9.52;92.45
70708;SHT30;58277;47.316;18.908;2022-11-04T01:00:29;9.48;92.74
70708;SHT30;58277;47.316;18.908;2022-11-04T01:02:52;9.45;92.79
70708;SHT30;58277;47.316;18.908;2022-11-04T01:05:14;9.55;92.64
70708;SHT30;58277;47.316;18.908;2022-11-04T01:07:37;9.39;92.88
70708;SHT30;58277;47.316;18.908;2022-11-04T01:10:05;9.42;93.02
70708;SHT30;58277;47.316;18.908;2022-11-04T01:12:28;9.35;92.97
70708;SHT30;58277;47.316;18.908;2022-11-04T01:14:51;9.39;93.10
70708;SHT30;58277;47.316;18.908;2022-11-04T01:17:14;9.40;93.19
70708;SHT30;58277;47.316;18.908;2022-11-04T01:19:39;9.40;93.12
70708;SHT30;58277;47.316;18.908;2022-11-04T01:22:02;9.50;93.10
70708;SHT30;58277;47.316;18.908;2022-11-04T01:24:24;9.52;92.88
70708;SHT30;58277;47.316;18.908;2022-11-04T01:26:47;9.49;92.76
70708;SHT30;58277;47.316;18.908;2022-11-04T01:29:09;9.56;92.77
70708;SHT30;58277;47.316;18.908;2022-11-04T01:31:32;9.55;92.71
70708;SHT30;58277;47.316;18.908;2022-11-04T01:33:56;9.57;92.70
70708;SHT30;58277;47.316;18.908;2022-11-04T01:36:20;9.55;92.83
70708;SHT30;58277;47.316;18.908;2022-11-04T01:38:43;9.53;92.77
70708;SHT30;58277;47.316;18.908;2022-11-04T01:41:07;9.46;92.92
70708;SHT30;58277;47.316;18.908;2022-11-04T01:46:21;9.40;93.06
70708;SHT30;58277;47.316;18.908;2022-11-04T01:48:44;9.35;93.45
70708;SHT30;58277;47.316;18.908;2022-11-04T01:51:08;9.34;93.64
70708;SHT30;58277;47.316;18.908;2022-11-04T01:53:33;9.38;93.82
70708;SHT30;58277;47.316;18.908;2022-11-04T01:55:59;9.36;93.70
70708;SHT30;58277;47.316;18.908;2022-11-04T01:58:27;9.46;93.45
70708;SHT30;58277;47.316;18.908;2022-11-04T02:00:51;9.46;93.30
70708;SHT30;58277;47.316;18.908;2022-11-04T02:03:23;9.50;93.34
70708;SHT30;58277;47.316;18.908;2022-11-04T02:05:47;9.62;93.04
70708;SHT30;58277;47.316;18.908;2022-11-04T02:08:10;9.72;92.76
70708;SHT30;58277;47.316;18.908;2022-11-04T02:10:34;9.77;92.45
70708;SHT30;58277;47.316;18.908;2022-11-04T02:13:00;9.80;92.43
70708;SHT30;58277;47.316;18.908;2022-11-04T02:21:18;9.94;92.15
70708;SHT30;58277;47.316;18.908;2022-11-04T02:23:59;9.94;92.35
70708;SHT30;58277;47.316;18.908;2022-11-04T02:27:02;9.87;92.60
70708;SHT30;58277;47.316;18.908;2022-11-04T02:33:10;9.91;92.69
70708;SHT30;58277;47.316;18.908;2022-11-04T02:43:57;9.94;92.65
70708;SHT30;58277;47.316;18.908;2022-11-04T02:49:12;10.08;92.47
70708;SHT30;58277;47.316;18.908;2022-11-04T02:51:47;10.05;92.60
70708;SHT30;58277;47.316;18.908;2022-11-04T02:54:22;10.07;92.71
70708;SHT30;58277;47.316;18.908;2022-11-04T02:56:50;10.11;92.65
70708;SHT30;58277;47.316;18.908;2022-11-04T02:59:32;10.22;92.15
70708;SHT30;58277;47.316;18.908;2022-11-04T03:01:57;10.15;92.28
70708;SHT30;58277;47.316;18.908;2022-11-04T03:04:26;10.18;92.17
70708;SHT30;58277;47.316;18.908;2022-11-04T03:06:51;10.18;92.41
70708;SHT30;58277;47.316;18.908;2022-11-04T03:09:17;10.24;92.44
70708;SHT30;58277;47.316;18.908;2022-11-04T03:11:43;10.11;92.52
70708;SHT30;58277;47.316;18.908;2022-11-04T03:14:11;10.08;93.01
70708;SHT30;58277;47.316;18.908;2022-11-04T03:16:40;9.95;93.39
70708;SHT30;58277;47.316;18.908;2022-11-04T03:21:52;9.93;93.71
70708;SHT30;58277;47.316;18.908;2022-11-04T03:24:15;9.84;93.94
70708;SHT30;58277;47.316;18.908;2022-11-04T03:26:46;9.93;93.80
70708;SHT30;58277;47.316;18.908;2022-11-04T03:32:06;9.97;93.62
70708;SHT30;58277;47.316;18.908;2022-11-04T03:34:30;9.93;93.75
70708;SHT30;58277;47.316;18.908;2022-11-04T03:36:53;9.93;93.78
70708;SHT30;58277;47.316;18.908;2022-11-04T03:39:16;9.90;93.76
70708;SHT30;58277;47.316;18.908;2022-11-04T03:41:46;9.94;93.86
70708;SHT30;58277;47.316;18.908;2022-11-04T03:44:09;9.98;93.71
70708;SHT30;58277;47.316;18.908;2022-11-04T03:46:32;10.00;93.62
70708;SHT30;58277;47.316;18.908;2022-11-04T03:48:57;10.03;93.45
70708;SHT30;58277;47.316;18.908;2022-11-04T03:51:20;10.07;93.31
70708;SHT30;58277;47.316;18.908;2022-11-04T03:53:43;10.08;93.26
70708;SHT30;58277;47.316;18.908;2022-11-04T04:01:53;10.10;93.01
70708;SHT30;58277;47.316;18.908;2022-11-04T04:04:31;10.11;92.76
70708;SHT30;58277;47.316;18.908;2022-11-04T04:07:28;10.15;92.64
70708;SHT30;58277;47.316;18.908;2022-11-04T04:09:58;10.11;92.67
70708;SHT30;58277;47.316;18.908;2022-11-04T04:12:37;10.05;92.86
70708;SHT30;58277;47.316;18.908;2022-11-04T04:15:10;10.11;92.88
70708;SHT30;58277;47.316;18.908;2022-11-04T04:17:54;10.14;92.67
70708;SHT30;58277;47.316;18.908;2022-11-04T04:20:20;10.14;92.73
70708;SHT30;58277;47.316;18.908;2022-11-04T04:22:51;10.17;92.66
70708;SHT30;58277;47.316;18.908;2022-11-04T04:25:16;10.15;92.59
70708;SHT30;58277;47.316;18.908;2022-11-04T04:27:59;10.11;92.50
70708;SHT30;58277;47.316;18.908;2022-11-04T04:30:22;10.10;92.49
70708;SHT30;58277;47.316;18.908;2022-11-04T04:33:07;10.10;92.39
70708;SHT30;58277;47.316;18.908;2022-11-04T04:35:33;10.07;92.38
70708;SHT30;58277;47.316;18.908;2022-11-04T04:38:05;10.08;92.39
70708;SHT30;58277;47.316;18.908;2022-11-04T04:40:58;10.10;92.52
70708;SHT30;58277;47.316;18.908;2022-11-04T04:43:42;10.04;92.65
70708;SHT30;58277;47.316;18.908;2022-11-04T04:46:24;10.07;92.62
70708;SHT30;58277;47.316;18.908;2022-11-04T04:48:47;10.11;92.59
70708;SHT30;58277;47.316;18.908;2022-11-04T04:51:09;10.13;92.52
70708;SHT30;58277;47.316;18.908;2022-11-04T04:53:32;10.14;92.46
70708;SHT30;58277;47.316;18.908;2022-11-04T04:55:54;10.18;92.34
70708;SHT30;58277;47.316;18.908;2022-11-04T04:58:17;10.25;91.84
70708;SHT30;58277;47.316;18.908;2022-11-04T05:00:40;10.24;91.87
70708;SHT30;58277;47.316;18.908;2022-11-04T05:03:02;10.17;92.07
70708;SHT30;58277;47.316;18.908;2022-11-04T05:05:25;10.13;92.23
70708;SHT30;58277;47.316;18.908;2022-11-04T05:07:49;10.18;92.16
70708;SHT30;58277;47.316;18.908;2022-11-04T05:10:13;10.13;92.27
70708;SHT30;58277;47.316;18.908;2022-11-04T05:12:37;10.08;92.26
70708;SHT30;58277;47.316;18.908;2022-11-04T05:15:19;10.01;92.53
70708;SHT30;58277;47.316;18.908;2022-11-04T05:17:41;10.03;92.57
70708;SHT30;58277;47.316;18.908;2022-11-04T05:20:04;10.05;92.31
70708;SHT30;58277;47.316;18.908;2022-11-04T05:22:27;10.10;92.10
70708;SHT30;58277;47.316;18.908;2022-11-04T05:24:50;10.15;91.92
70708;SHT30;58277;47.316;18.908;2022-11-04T05:27:12;10.20;91.72
70708;SHT30;58277;47.316;18.908;2022-11-04T05:29:35;10.14;91.56
70708;SHT30;58277;47.316;18.908;2022-11-04T05:31:57;10.07;91.83
70708;SHT30;58277;47.316;18.908;2022-11-04T05:34:20;10.10;91.76
70708;SHT30;58277;47.316;18.908;2022-11-04T05:36:43;10.04;91.68
70708;SHT30;58277;47.316;18.908;2022-11-04T05:39:09;9.97;91.99
70708;SHT30;58277;47.316;18.908;2022-11-04T05:41:33;9.98;91.99
70708;SHT30;58277;47.316;18.908;2022-11-04T05:43:57;9.93;91.97
70708;SHT30;58277;47.316;18.908;2022-11-04T05:46:21;9.86;92.28
70708;SHT30;58277;47.316;18.908;2022-11-04T05:48:43;9.82;92.55
70708;SHT30;58277;47.316;18.908;2022-11-04T05:51:06;9.75;92.69
70708;SHT30;58277;47.316;18.908;2022-11-04T05:53:29;9.72;92.83
70708;SHT30;58277;47.316;18.908;2022-11-04T05:55:51;9.70;92.95
70708;SHT30;58277;47.316;18.908;2022-11-04T05:58:14;9.67;93.04
70708;SHT30;58277;47.316;18.908;2022-11-04T06:00:37;9.73;92.79
70708;SHT30;58277;47.316;18.908;2022-11-04T06:03:00;9.76;92.70
70708;SHT30;58277;47.316;18.908;2022-11-04T06:05:23;9.70;92.85
70708;SHT30;58277;47.316;18.908;2022-11-04T06:07:46;9.59;93.13
70708;SHT30;58277;47.316;18.908;2022-11-04T06:10:09;9.69;93.00
70708;SHT30;58277;47.316;18.908;2022-11-04T06:12:32;9.62;92.97
70708;SHT30;58277;47.316;18.908;2022-11-04T06:14:54;9.63;93.04
70708;SHT30;58277;47.316;18.908;2022-11-04T06:17:19;9.56;93.19
70708;SHT30;58277;47.316;18.908;2022-11-04T06:19:43;9.55;93.34
70708;SHT30;58277;47.316;18.908;2022-11-04T06:22:05;9.55;93.25
70708;SHT30;58277;47.316;18.908;2022-11-04T06:24:28;9.57;93.19
70708;SHT30;58277;47.316;18.908;2022-11-04T06:26:51;9.56;93.27
70708;SHT30;58277;47.316;18.908;2022-11-04T06:29:13;9.57;93.30
70708;SHT30;58277;47.316;18.908;2022-11-04T06:31:36;9.50;93.21
70708;SHT30;58277;47.316;18.908;2022-11-04T06:33:59;9.46;93.34
70708;SHT30;58277;47.316;18.908;2022-11-04T06:36:21;9.43;93.50
70708;SHT30;58277;47.316;18.908;2022-11-04T06:38:44;9.56;93.23
70708;SHT30;58277;47.316;18.908;2022-11-04T06:41:10;9.50;92.95
70708;SHT30;58277;47.316;18.908;2022-11-04T06:43:33;9.57;93.04
70708;SHT30;58277;47.316;18.908;2022-11-04T06:45:57;9.63;92.85
70708;SHT30;58277;47.316;18.908;2022-11-04T06:48:20;9.62;92.70
70708;SHT30;58277;47.316;18.908;2022-11-04T06:50:43;9.63;92.59
70708;SHT30;58277;47.316;18.908;2022-11-04T06:53:06;9.67;92.49
70708;SHT30;58277;47.316;18.908;2022-11-04T06:55:31;9.69;92.52
70708;SHT30;58277;47.316;18.908;2022-11-04T06:57:54;9.75;92.04
70708;SHT30;58277;47.316;18.908;2022-11-04T07:00:17;9.76;92.11
70708;SHT30;58277;47.316;18.908;2022-11-04T07:02:40;9.77;92.06
70708;SHT30;58277;47.316;18.908;2022-11-04T07:05:05;9.79;91.97
70708;SHT30;58277;47.316;18.908;2022-11-04T07:07:28;9.77;91.99
70708;SHT30;58277;47.316;18.908;2022-11-04T07:09:53;9.83;91.75
70708;SHT30;58277;47.316;18.908;2022-11-04T07:12:16;9.79;91.87
70708;SHT30;58277;47.316;18.908;2022-11-04T07:14:38;9.67;92.07
70708;SHT30;58277;47.316;18.908;2022-11-04T07:17:01;9.75;92.15
70708;SHT30;58277;47.316;18.908;2022-11-04T07:19:24;9.70;92.00
70708;SHT30;58277;47.316;18.908;2022-11-04T07:21:47;9.65;92.23
70708;SHT30;58277;47.316;18.908;2022-11-04T07:24:10;9.66;92.18
70708;SHT30;58277;47.316;18.908;2022-11-04T07:26:33;9.82;91.89
70708;SHT30;58277;47.316;18.908;2022-11-04T07:28:56;9.69;91.85
70708;SHT30;58277;47.316;18.908;2022-11-04T07:31:21;9.73;91.69
70708;SHT30;58277;47.316;18.908;2022-11-04T07:33:44;9.65;91.87
70708;SHT30;58277;47.316;18.908;2022-11-04T07:36:11;9.66;91.87
70708;SHT30;58277;47.316;18.908;2022-11-04T07:38:34;9.62;91.94
70708;SHT30;58277;47.316;18.908;2022-11-04T07:40:58;9.66;91.67
70708;SHT30;58277;47.316;18.908;2022-11-04T07:43:20;9.62;91.79
70708;SHT30;58277;47.316;18.908;2022-11-04T07:45:46;9.62;91.85
70708;SHT30;58277;47.316;18.908;2022-11-04T07:48:09;9.56;91.87
70708;SHT30;58277;47.316;18.908;2022-11-04T07:50:33;9.67;91.86
70708;SHT30;58277;47.316;18.908;2022-11-04T07:52:56;9.70;91.41
70708;SHT30;58277;47.316;18.908;2022-11-04T07:55:20;9.73;91.37
70708;SHT30;58277;47.316;18.908;2022-11-04T07:57:47;9.77;91.03
70708;SHT30;58277;47.316;18.908;2022-11-04T08:00:10;9.82;90.71
70708;SHT30;58277;47.316;18.908;2022-11-04T08:02:35;9.62;90.77
70708;SHT30;58277;47.316;18.908;2022-11-04T08:04:58;9.56;91.23
70708;SHT30;58277;47.316;18.908;2022-11-04T08:07:21;9.49;91.50
70708;SHT30;58277;47.316;18.908;2022-11-04T08:09:44;9.49;91.55
70708;SHT30;58277;47.316;18.908;2022-11-04T08:12:06;9.57;91.36
70708;SHT30;58277;47.316;18.908;2022-11-04T08:14:29;9.53;91.08
70708;SHT30;58277;47.316;18.908;2022-11-04T08:16:52;9.57;91.09
70708;SHT30;58277;47.316;18.908;2022-11-04T08:19:15;9.67;90.87
70708;SHT30;58277;47.316;18.908;2022-11-04T08:21:37;9.72;90.95
70708;SHT30;58277;47.316;18.908;2022-11-04T08:24:00;9.76;90.72
70708;SHT30;58277;47.316;18.908;2022-11-04T08:26:25;9.70;90.61
70708;SHT30;58277;47.316;18.908;2022-11-04T08:28:49;9.84;90.46
70708;SHT30;58277;47.316;18.908;2022-11-04T08:31:19;9.67;90.43
70708;SHT30;58277;47.316;18.908;2022-11-04T08:33:43;9.72;90.63
70708;SHT30;58277;47.316;18.908;2022-11-04T08:36:32;9.79;90.08
70708;SHT30;58277;47.316;18.908;2022-11-04T08:38:56;9.65;90.17
70708;SHT30;58277;47.316;18.908;2022-11-04T08:41:22;9.60;90.43
70708;SHT30;58277;47.316;18.908;2022-11-04T08:43:46;9.67;90.06
70708;SHT30;58277;47.316;18.908;2022-11-04T08:46:11;9.87;89.50
70708;SHT30;58277;47.316;18.908;2022-11-04T08:48:37;9.98;88.94
70708;SHT30;58277;47.316;18.908;2022-11-04T08:51:01;9.95;88.72
70708;SHT30;58277;47.316;18.908;2022-11-04T08:53:24;9.93;88.72
70708;SHT30;58277;47.316;18.908;2022-11-04T08:55:47;9.94;88.54
70708;SHT30;58277;47.316;18.908;2022-11-04T08:58:10;9.95;88.31
70708;SHT30;58277;47.316;18.908;2022-11-04T09:00:33;9.90;88.43
70708;SHT30;58277;47.316;18.908;2022-11-04T09:02:56;9.90;88.72
70708;SHT30;58277;47.316;18.908;2022-11-04T09:05:18;9.80;88.70
70708;SHT30;58277;47.316;18.908;2022-11-04T09:07:41;9.82;88.99
70708;SHT30;58277;47.316;18.908;2022-11-04T09:10:04;9.86;88.74
70708;SHT30;58277;47.316;18.908;2022-11-04T09:12:28;9.87;88.85
70708;SHT30;58277;47.316;18.908;2022-11-04T09:14:50;9.80;88.99
70708;SHT30;58277;47.316;18.908;2022-11-04T09:17:13;9.83;89.18
70708;SHT30;58277;47.316;18.908;2022-11-04T09:19:36;9.90;88.89
70708;SHT30;58277;47.316;18.908;2022-11-04T09:21:59;10.03;88.51
70708;SHT30;58277;47.316;18.908;2022-11-04T09:24:22;9.86;88.85
70708;SHT30;58277;47.316;18.908;2022-11-04T09:26:44;9.77;88.94
70708;SHT30;58277;47.316;18.908;2022-11-04T09:29:07;9.67;89.52
70708;SHT30;58277;47.316;18.908;2022-11-04T09:31:31;9.66;89.44
70708;SHT30;58277;47.316;18.908;2022-11-04T09:33:54;9.56;89.56
70708;SHT30;58277;47.316;18.908;2022-11-04T09:36:17;9.55;89.69
70708;SHT30;58277;47.316;18.908;2022-11-04T09:38:40;9.48;89.90
70708;SHT30;58277;47.316;18.908;2022-11-04T09:46:32;9.63;89.35
70708;SHT30;58277;47.316;18.908;2022-11-04T09:48:57;9.67;89.45
70708;SHT30;58277;47.316;18.908;2022-11-04T09:51:24;9.67;89.29
70708;SHT30;58277;47.316;18.908;2022-11-04T09:54:15;9.67;89.36
70708;SHT30;58277;47.316;18.908;2022-11-04T09:56:43;9.70;89.33
70708;SHT30;58277;47.316;18.908;2022-11-04T09:59:10;9.76;89.15
70708;SHT30;58277;47.316;18.908;2022-11-04T10:17:53;9.90;88.82
70708;SHT30;58277;47.316;18.908;2022-11-04T10:21:07;9.82;88.60
70708;SHT30;58277;47.316;18.908;2022-11-04T10:25:58;9.84;89.27
70708;SHT30;58277;47.316;18.908;2022-11-04T10:28:32;9.93;89.73
70708;SHT30;58277;47.316;18.908;2022-11-04T10:30:55;9.83;90.03
70708;SHT30;58277;47.316;18.908;2022-11-04T10:34:25;9.87;90.14
70708;SHT30;58277;47.316;18.908;2022-11-04T10:36:13;9.90;90.04
70708;SHT30;58277;47.316;18.908;2022-11-04T10:38:53;9.91;89.94
70708;SHT30;58277;47.316;18.908;2022-11-04T10:41:21;9.90;89.78
70708;SHT30;58277;47.316;18.908;2022-11-04T10:43:45;9.87;89.52
70708;SHT30;58277;47.316;18.908;2022-11-04T10:51:29;10.15;89.51
70708;SHT30;58277;47.316;18.908;2022-11-04T10:53:55;10.25;88.81
70708;SHT30;58277;47.316;18.908;2022-11-04T10:56:27;10.22;88.56
70708;SHT30;58277;47.316;18.908;2022-11-04T10:58:54;10.28;88.77
70708;SHT30;58277;47.316;18.908;2022-11-04T11:01:53;10.27;88.66
70708;SHT30;58277;47.316;18.908;2022-11-04T11:04:36;10.30;88.86
70708;SHT30;58277;47.316;18.908;2022-11-04T11:07:05;10.37;88.34
70708;SHT30;58277;47.316;18.908;2022-11-04T11:09:32;10.40;88.18
70708;SHT30;58277;47.316;18.908;2022-11-04T11:12:04;10.45;88.48
70708;SHT30;58277;47.316;18.908;2022-11-04T11:14:49;10.49;88.01
70708;SHT30;58277;47.316;18.908;2022-11-04T11:17:21;10.63;87.46
70708;SHT30;58277;47.316;18.908;2022-11-04T11:19:53;10.68;87.28
70708;SHT30;58277;47.316;18.908;2022-11-04T11:27:47;11.30;85.38
70708;SHT30;58277;47.316;18.908;2022-11-04T11:32:42;11.32;84.59
70708;SHT30;58277;47.316;18.908;2022-11-04T11:35:15;11.32;85.33
70708;SHT30;58277;47.316;18.908;2022-11-04T11:37:38;11.14;85.39
70708;SHT30;58277;47.316;18.908;2022-11-04T11:40:02;11.07;85.79
70708;SHT30;58277;47.316;18.908;2022-11-04T11:42:25;11.27;85.28
70708;SHT30;58277;47.316;18.908;2022-11-04T11:44:53;11.24;85.43
70708;SHT30;58277;47.316;18.908;2022-11-04T11:50:20;11.31;85.05
70708;SHT30;58277;47.316;18.908;2022-11-04T11:52:52;11.44;85.18
70708;SHT30;58277;47.316;18.908;2022-11-04T11:55:33;11.34;85.14
70708;SHT30;58277;47.316;18.908;2022-11-04T12:01:32;11.51;84.64
70708;SHT30;58277;47.316;18.908;2022-11-04T12:03:57;11.58;84.70
70708;SHT30;58277;47.316;18.908;2022-11-04T12:06:57;11.83;84.21
70708;SHT30;58277;47.316;18.908;2022-11-04T12:10:09;11.74;84.50
70708;SHT30;58277;47.316;18.908;2022-11-04T12:13:36;11.78;84.48
70708;SHT30;58277;47.316;18.908;2022-11-04T12:16:39;12.02;84.15
70708;SHT30;58277;47.316;18.908;2022-11-04T12:21:13;12.40;83.00
70708;SHT30;58277;47.316;18.908;2022-11-04T12:38:35;12.00;83.77
70708;SHT30;58277;47.316;18.908;2022-11-04T12:47:05;12.24;83.00
70708;SHT30;58277;47.316;18.908;2022-11-04T12:49:42;12.13;83.37
70708;SHT30;58277;47.316;18.908;2022-11-04T12:58:02;12.02;83.84
70708;SHT30;58277;47.316;18.908;2022-11-04T13:00:28;11.93;84.06
70708;SHT30;58277;47.316;18.908;2022-11-04T13:03:15;12.00;84.29
70708;SHT30;58277;47.316;18.908;2022-11-04T13:10:44;12.26;83.72
70708;SHT30;58277;47.316;18.908;2022-11-04T13:13:11;12.34;83.65
70708;SHT30;58277;47.316;18.908;2022-11-04T13:15:57;12.40;83.45
70708;SHT30;58277;47.316;18.908;2022-11-04T13:18:22;12.40;83.56
70708;SHT30;58277;47.316;18.908;2022-11-04T13:20:57;12.37;83.43
70708;SHT30;58277;47.316;18.908;2022-11-04T13:23:29;12.37;83.48
70708;SHT30;58277;47.316;18.908;2022-11-04T13:25:53;12.30;83.75
70708;SHT30;58277;47.316;18.908;2022-11-04T13:28:19;12.41;83.97
70708;SHT30;58277;47.316;18.908;2022-11-04T13:34:00;12.33;83.70
70708;SHT30;58277;47.316;18.908;2022-11-04T13:36:46;12.34;83.88
70708;SHT30;58277;47.316;18.908;2022-11-04T13:39:17;12.36;83.70
70708;SHT30;58277;47.316;18.908;2022-11-04T13:44:27;12.34;84.12
70708;SHT30;58277;47.316;18.908;2022-11-04T13:46:57;12.38;83.75
70708;SHT30;58277;47.316;18.908;2022-11-04T13:49:31;12.30;83.70
70708;SHT30;58277;47.316;18.908;2022-11-04T13:52:10;12.26;84.21
70708;SHT30;58277;47.316;18.908;2022-11-04T13:57:09;12.31;84.29
70708;SHT30;58277;47.316;18.908;2022-11-04T13:59:32;12.30;84.52
70708;SHT30;58277;47.316;18.908;2022-11-04T14:04:34;12.34;84.03
70708;SHT30;58277;47.316;18.908;2022-11-04T14:06:59;12.33;84.24
70708;SHT30;58277;47.316;18.908;2022-11-04T14:14:33;12.31;84.17
70708;SHT30;58277;47.316;18.908;2022-11-04T14:16:56;12.38;84.29
70708;SHT30;58277;47.316;18.908;2022-11-04T14:19:56;12.40;84.12
70708;SHT30;58277;47.316;18.908;2022-11-04T14:22:19;12.41;84.07
70708;SHT30;58277;47.316;18.908;2022-11-04T14:24:42;12.44;84.18
70708;SHT30;58277;47.316;18.908;2022-11-04T14:27:05;12.41;84.01
70708;SHT30;58277;47.316;18.908;2022-11-04T14:29:49;12.44;84.21
70708;SHT30;58277;47.316;18.908;2022-11-04T14:32:12;12.38;84.15
70708;SHT30;58277;47.316;18.908;2022-11-04T14:34:36;12.38;84.72
70708;SHT30;58277;47.316;18.908;2022-11-04T14:39:41;12.37;84.98
70708;SHT30;58277;47.316;18.908;2022-11-04T14:42:04;12.33;84.91
70708;SHT30;58277;47.316;18.908;2022-11-04T14:44:43;12.36;84.68
70708;SHT30;58277;47.316;18.908;2022-11-04T14:47:24;12.33;84.70
70708;SHT30;58277;47.316;18.908;2022-11-04T14:49:59;12.34;84.64
70708;SHT30;58277;47.316;18.908;2022-11-04T14:52:28;12.33;85.10
70708;SHT30;58277;47.316;18.908;2022-11-04T14:55:17;12.38;84.41
70708;SHT30;58277;47.316;18.908;2022-11-04T14:57:41;12.37;84.62
70708;SHT30;58277;47.316;18.908;2022-11-04T15:06:02;12.34;84.78
70708;SHT30;58277;47.316;18.908;2022-11-04T15:08:35;12.42;84.68
70708;SHT30;58277;47.316;18.908;2022-11-04T15:11:26;12.37;84.90
70708;SHT30;58277;47.316;18.908;2022-11-04T15:14:25;12.42;84.80
70708;SHT30;58277;47.316;18.908;2022-11-04T15:16:51;12.36;85.15
70708;SHT30;58277;47.316;18.908;2022-11-04T15:19:22;12.34;85.56
70708;SHT30;58277;47.316;18.908;2022-11-04T15:21:48;12.33;85.27
70708;SHT30;58277;47.316;18.908;2022-11-04T15:24:15;12.30;85.55
70708;SHT30;58277;47.316;18.908;2022-11-04T15:26:39;12.30;85.62
70708;SHT30;58277;47.316;18.908;2022-11-04T15:29:09;12.31;85.46
70708;SHT30;58277;47.316;18.908;2022-11-04T15:31:34;12.30;85.68
70708;SHT30;58277;47.316;18.908;2022-11-04T15:34:02;12.30;85.91
70708;SHT30;58277;47.316;18.908;2022-11-04T15:36:40;12.27;85.95
70708;SHT30;58277;47.316;18.908;2022-11-04T15:41:42;12.26;86.63
70708;SHT30;58277;47.316;18.908;2022-11-04T15:44:30;12.23;86.30
70708;SHT30;58277;47.316;18.908;2022-11-04T15:46:59;12.26;86.23
70708;SHT30;58277;47.316;18.908;2022-11-04T15:49:30;12.24;86.44
70708;SHT30;58277;47.316;18.908;2022-11-04T15:52:09;12.24;86.31
70708;SHT30;58277;47.316;18.908;2022-11-04T15:54:38;12.30;86.24
70708;SHT30;58277;47.316;18.908;2022-11-04T15:57:04;12.29;86.27
70708;SHT30;58277;47.316;18.908;2022-11-04T15:59:35;12.30;86.22
70708;SHT30;58277;47.316;18.908;2022-11-04T16:01:59;12.29;86.35
70708;SHT30;58277;47.316;18.908;2022-11-04T16:04:26;12.26;86.63
70708;SHT30;58277;47.316;18.908;2022-11-04T16:09:30;12.26;86.98
70708;SHT30;58277;47.316;18.908;2022-11-04T16:14:50;12.36;86.82
70708;SHT30;58277;47.316;18.908;2022-11-04T16:17:13;12.24;87.15
70708;SHT30;58277;47.316;18.908;2022-11-04T16:19:37;12.27;87.34
70708;SHT30;58277;47.316;18.908;2022-11-04T16:22:07;12.26;87.80
70708;SHT30;58277;47.316;18.908;2022-11-04T16:24:32;12.19;87.76
70708;SHT30;58277;47.316;18.908;2022-11-04T16:26:56;12.19;87.62
70708;SHT30;58277;47.316;18.908;2022-11-04T16:29:25;12.19;87.81
70708;SHT30;58277;47.316;18.908;2022-11-04T16:35:10;12.19;88.02
70708;SHT30;58277;47.316;18.908;2022-11-04T16:37:35;12.17;87.94
70708;SHT30;58277;47.316;18.908;2022-11-04T16:39:58;12.20;87.67
70708;SHT30;58277;47.316;18.908;2022-11-04T16:42:20;12.27;87.79
70708;SHT30;58277;47.316;18.908;2022-11-04T16:44:51;12.23;87.89
70708;SHT30;58277;47.316;18.908;2022-11-04T16:47:17;12.16;88.22
70708;SHT30;58277;47.316;18.908;2022-11-04T16:49:40;12.20;88.17
70708;SHT30;58277;47.316;18.908;2022-11-04T16:52:11;12.20;88.28
70708;SHT30;58277;47.316;18.908;2022-11-04T16:54:34;12.19;88.18
70708;SHT30;58277;47.316;18.908;2022-11-04T16:56:57;12.10;88.69
70708;SHT30;58277;47.316;18.908;2022-11-04T16:59:21;12.14;88.58
70708;SHT30;58277;47.316;18.908;2022-11-04T17:01:44;12.13;88.62
70708;SHT30;58277;47.316;18.908;2022-11-04T17:04:08;12.19;88.53
70708;SHT30;58277;47.316;18.908;2022-11-04T17:06:30;12.14;88.57
70708;SHT30;58277;47.316;18.908;2022-11-04T17:08:53;12.17;88.60
70708;SHT30;58277;47.316;18.908;2022-11-04T17:11:17;12.17;88.37
70708;SHT30;58277;47.316;18.908;2022-11-04T17:13:39;12.20;88.39
70708;SHT30;58277;47.316;18.908;2022-11-04T17:16:06;12.17;88.61
70708;SHT30;58277;47.316;18.908;2022-11-04T17:18:33;12.17;88.56
70708;SHT30;58277;47.316;18.908;2022-11-04T17:20:57;12.16;88.51
70708;SHT30;58277;47.316;18.908;2022-11-04T17:23:21;12.17;88.61
70708;SHT30;58277;47.316;18.908;2022-11-04T17:25:44;12.24;88.39
70708;SHT30;58277;47.316;18.908;2022-11-04T17:28:07;12.26;88.10
70708;SHT30;58277;47.316;18.908;2022-11-04T17:30:30;12.26;88.18
70708;SHT30;58277;47.316;18.908;2022-11-04T17:32:53;12.23;88.37
70708;SHT30;58277;47.316;18.908;2022-11-04T17:35:16;12.24;88.33
70708;SHT30;58277;47.316;18.908;2022-11-04T17:37:39;12.30;88.19
70708;SHT30;58277;47.316;18.908;2022-11-04T17:40:03;12.37;88.30
70708;SHT30;58277;47.316;18.908;2022-11-04T17:42:29;12.44;87.92
70708;SHT30;58277;47.316;18.908;2022-11-04T17:45:11;12.47;87.91
70708;SHT30;58277;47.316;18.908;2022-11-04T17:47:34;12.55;87.69
70708;SHT30;58277;47.316;18.908;2022-11-04T17:49:57;12.55;87.77
70708;SHT30;58277;47.316;18.908;2022-11-04T17:52:20;12.67;87.50
70708;SHT30;58277;47.316;18.908;2022-11-04T17:54:44;12.61;87.48